createdAt,value
2022-10-29T00:01:06.587Z,83.94
2022-10-29T00:03:36.077Z,84.01
2022-10-29T00:06:07.072Z,84.86
2022-10-29T00:08:40.411Z,84.90
2022-10-29T00:11:11.747Z,85.14
2022-10-29T00:13:39.870Z,85.64
2022-10-29T00:16:15.124Z,85.40
2022-10-29T00:18:42.763Z,85.04
2022-10-29T00:21:19.239Z,85.39
2022-10-29T00:23:46.881Z,85.40
2022-10-29T00:26:15.030Z,85.28
2022-10-29T00:28:44.767Z,85.64
2022-10-29T00:31:19.335Z,85.54
2022-10-29T00:33:48.953Z,85.13
2022-10-29T00:36:24.319Z,85.61
2022-10-29T00:38:53.986Z,85.37
2022-10-29T00:41:26.555Z,86.38
2022-10-29T00:44:21.541Z,85.83
2022-10-29T00:46:57.559Z,85.28
2022-10-29T00:49:26.637Z,84.80
2022-10-29T00:51:53.786Z,84.81
2022-10-29T00:54:23.589Z,84.76
2022-10-29T00:56:58.441Z,84.96
2022-10-29T00:59:26.039Z,85.28
2022-10-29T01:01:53.925Z,86.48
2022-10-29T01:04:23.988Z,85.89
2022-10-29T01:06:57.447Z,85.86
2022-10-29T01:09:26.954Z,86.36
2022-10-29T01:12:21.705Z,86.59
2022-10-29T01:15:00.293Z,86.94
2022-10-29T01:18:11.435Z,86.83
2022-10-29T01:21:08.388Z,86.90
2022-10-29T01:23:50.645Z,86.91
2022-10-29T01:26:58.875Z,88.37
2022-10-29T01:29:56.638Z,90.42
2022-10-29T01:32:33.039Z,90.37
2022-10-29T01:35:13.159Z,89.56
2022-10-29T01:38:11.655Z,89.56
2022-10-29T01:41:00.899Z,89.34
2022-10-29T01:43:51.346Z,89.17
2022-10-29T01:46:43.272Z,88.48
2022-10-29T01:49:18.761Z,88.44
2022-10-29T01:51:47.273Z,89.27
2022-10-29T01:54:14.126Z,88.88
2022-10-29T01:56:43.235Z,88.73
2022-10-29T01:59:22.975Z,88.75
2022-10-29T02:02:05.688Z,88.99
2022-10-29T02:04:55.146Z,89.40
2022-10-29T02:07:50.425Z,89.65
2022-10-29T02:10:38.307Z,89.09
2022-10-29T02:13:10.165Z,88.90
2022-10-29T02:15:51.252Z,88.90
2022-10-29T02:18:18.412Z,89.08
2022-10-29T02:20:46.699Z,89.86
2022-10-29T02:23:16.901Z,89.19
2022-10-29T02:25:46.292Z,88.66
2022-10-29T02:28:13.325Z,88.65
2022-10-29T02:30:40.298Z,88.76
2022-10-29T02:33:07.151Z,88.20
2022-10-29T02:35:34.007Z,86.65
2022-10-29T02:38:03.475Z,87.85
2022-10-29T02:40:30.325Z,88.32
2022-10-29T02:42:57.486Z,87.20
2022-10-29T02:45:24.491Z,87.31
2022-10-29T02:48:00.904Z,88.65
2022-10-29T02:50:27.765Z,88.51
2022-10-29T02:52:54.593Z,88.82
2022-10-29T02:55:21.380Z,89.08
2022-10-29T02:57:48.194Z,88.82
2022-10-29T03:00:17.996Z,89.51
2022-10-29T03:02:47.942Z,89.33
2022-10-29T03:05:16.955Z,89.94
2022-10-29T03:07:43.862Z,91.07
2022-10-29T03:10:12.831Z,92.22
2022-10-29T03:12:42.289Z,91.73
2022-10-29T03:15:14.560Z,91.45
2022-10-29T03:17:43.915Z,90.48
2022-10-29T03:20:10.955Z,90.85
2022-10-29T03:22:37.759Z,90.63
2022-10-29T03:25:04.984Z,90.92
2022-10-29T03:27:42.253Z,89.88
2022-10-29T03:30:12.107Z,90.02
2022-10-29T03:32:47.919Z,88.59
2022-10-29T03:35:16.075Z,89.13
2022-10-29T03:37:42.936Z,88.57
2022-10-29T03:40:10.597Z,88.54
2022-10-29T03:42:39.091Z,88.31
2022-10-29T03:45:10.362Z,88.20
2022-10-29T03:47:41.629Z,89.23
2022-10-29T03:50:11.466Z,89.79
2022-10-29T03:52:42.848Z,89.29
2022-10-29T03:55:09.938Z,90.34
2022-10-29T03:57:38.992Z,91.21
2022-10-29T04:00:12.725Z,90.36
2022-10-29T04:02:39.799Z,90.98
2022-10-29T04:05:11.305Z,90.89
2022-10-29T04:07:38.149Z,91.25
2022-10-29T04:10:05.560Z,91.40
2022-10-29T04:12:32.485Z,90.33
2022-10-29T04:14:59.280Z,90.30
2022-10-29T04:17:26.162Z,89.98
2022-10-29T04:19:53.083Z,90.16
2022-10-29T04:30:52.906Z,89.56
2022-10-29T04:33:20.367Z,89.09
2022-10-29T04:35:56.596Z,88.67
2022-10-29T04:38:24.748Z,88.97
2022-10-29T04:40:51.678Z,89.05
2022-10-29T04:43:23.146Z,88.22
2022-10-29T04:45:54.313Z,88.46
2022-10-29T04:48:22.295Z,88.22
2022-10-29T04:50:49.512Z,88.66
2022-10-29T04:53:19.479Z,88.40
2022-10-29T04:55:49.089Z,88.29
2022-10-29T04:58:18.848Z,88.35
2022-10-29T05:00:46.765Z,88.52
2022-10-29T05:03:14.126Z,88.59
2022-10-29T05:05:41.721Z,88.92
2022-10-29T05:08:11.036Z,89.49
2022-10-29T05:10:44.940Z,88.51
2022-10-29T05:13:13.137Z,88.36
2022-10-29T05:15:49.135Z,88.95
2022-10-29T05:18:19.735Z,90.05
2022-10-29T05:20:46.671Z,91.27
2022-10-29T05:23:14.019Z,90.25
2022-10-29T05:25:42.159Z,89.96
2022-10-29T05:28:21.131Z,89.27
2022-10-29T05:30:51.176Z,88.39
2022-10-29T05:33:25.308Z,88.21
2022-10-29T05:35:52.495Z,89.10
2022-10-29T05:38:19.798Z,89.16
2022-10-29T05:40:46.898Z,90.24
2022-10-29T05:43:20.310Z,89.33
2022-10-29T05:45:47.435Z,88.70
2022-10-29T05:48:14.520Z,89.42
2022-10-29T05:50:41.498Z,89.33
2022-10-29T05:53:16.752Z,90.79
2022-10-29T05:55:43.736Z,90.53
2022-10-29T05:58:16.109Z,89.95
2022-10-29T06:00:45.342Z,90.35
2022-10-29T06:03:18.219Z,90.67
2022-10-29T06:05:50.189Z,90.72
2022-10-29T06:08:18.175Z,91.00
2022-10-29T06:10:47.662Z,90.63
2022-10-29T06:13:22.311Z,90.22
2022-10-29T06:15:52.794Z,90.18
2022-10-29T06:18:21.912Z,91.00
2022-10-29T06:20:50.823Z,93.06
2022-10-29T06:23:19.946Z,93.32
2022-10-29T06:25:46.814Z,93.82
2022-10-29T06:28:16.399Z,93.37
2022-10-29T06:30:49.049Z,92.65
2022-10-29T06:33:21.970Z,92.26
2022-10-29T06:35:48.897Z,90.73
2022-10-29T06:38:17.114Z,90.13
2022-10-29T06:40:44.277Z,91.08
2022-10-29T06:43:12.612Z,92.35
2022-10-29T06:45:39.578Z,91.80
2022-10-29T06:48:08.977Z,91.77
2022-10-29T06:50:38.008Z,92.21
2022-10-29T06:53:09.982Z,91.60
2022-10-29T06:55:36.890Z,91.92
2022-10-29T06:58:14.002Z,91.77
2022-10-29T07:00:42.245Z,92.27
2022-10-29T07:03:15.805Z,92.37
2022-10-29T07:05:43.050Z,91.86
2022-10-29T07:08:10.616Z,91.09
2022-10-29T07:10:40.807Z,91.29
2022-10-29T07:13:12.622Z,90.60
2022-10-29T07:15:42.455Z,90.35
2022-10-29T07:18:12.259Z,90.33
2022-10-29T07:20:42.179Z,90.73
2022-10-29T07:23:10.394Z,89.89
2022-10-29T07:25:39.432Z,90.62
2022-10-29T07:28:11.594Z,90.81
2022-10-29T07:30:38.585Z,91.10
2022-10-29T07:33:05.411Z,91.04
2022-10-29T07:35:34.585Z,91.86
2022-10-29T07:38:10.841Z,91.53
2022-10-29T07:40:40.600Z,91.00
2022-10-29T07:43:08.771Z,90.36
2022-10-29T07:45:35.630Z,91.48
2022-10-29T07:48:09.159Z,91.34
2022-10-29T07:50:38.248Z,91.92
2022-10-29T07:53:09.387Z,92.13
2022-10-29T07:55:38.790Z,92.38
2022-10-29T07:58:12.076Z,91.58
2022-10-29T08:00:40.881Z,92.12
2022-10-29T08:03:10.597Z,91.12
2022-10-29T08:05:37.421Z,90.37
2022-10-29T08:08:07.322Z,90.30
2022-10-29T08:10:37.602Z,88.29
2022-10-29T08:13:07.658Z,88.45
2022-10-29T08:15:39.455Z,87.72
2022-10-29T08:18:20.553Z,87.76
2022-10-29T08:20:47.486Z,89.06
2022-10-29T08:23:14.855Z,89.81
2022-10-29T08:25:42.976Z,89.45
2022-10-29T08:28:25.576Z,87.85
2022-10-29T08:30:58.087Z,86.75
2022-10-29T08:33:24.880Z,86.17
2022-10-29T08:35:52.704Z,85.92
2022-10-29T08:38:23.338Z,88.19
2022-10-29T08:41:05.596Z,88.93
2022-10-29T08:44:25.562Z,87.05
2022-10-29T08:47:23.381Z,85.05
2022-10-29T08:50:23.177Z,86.23
2022-10-29T08:53:19.405Z,86.93
2022-10-29T08:55:43.730Z,81.43
2022-10-29T08:58:28.052Z,76.93
2022-10-29T09:01:00.697Z,72.47
2022-10-29T09:03:31.558Z,65.28
2022-10-29T09:06:07.397Z,55.60
2022-10-29T09:09:18.005Z,50.13
2022-10-29T09:11:53.327Z,47.60
2022-10-29T09:14:49.082Z,51.45
2022-10-29T09:17:33.809Z,56.99
2022-10-29T09:20:12.509Z,62.20
2022-10-29T09:23:01.270Z,63.29
2022-10-29T09:25:41.598Z,64.55
2022-10-29T09:28:52.136Z,65.74
2022-10-29T09:31:43.020Z,65.97
2022-10-29T09:34:35.872Z,67.11
2022-10-29T09:37:10.483Z,69.49
2022-10-29T09:39:44.518Z,71.26
2022-10-29T09:42:38.807Z,69.18
2022-10-29T09:45:14.692Z,67.73
2022-10-29T09:48:07.003Z,67.95
2022-10-29T09:50:54.552Z,67.01
2022-10-29T09:53:21.491Z,65.70
2022-10-29T09:55:57.108Z,63.64
2022-10-29T09:58:30.422Z,63.67
2022-10-29T10:01:00.346Z,61.17
2022-10-29T10:03:49.024Z,55.40
2022-10-29T10:06:22.065Z,52.31
2022-10-29T10:09:05.151Z,49.79
2022-10-29T10:11:44.273Z,52.18
2022-10-29T10:14:22.565Z,54.68
2022-10-29T10:17:02.873Z,53.63
2022-10-29T10:19:33.807Z,51.14
2022-10-29T10:22:19.880Z,48.34
2022-10-29T10:24:47.129Z,53.04
2022-10-29T10:27:19.994Z,53.70
2022-10-29T10:30:07.031Z,57.01
2022-10-29T10:32:33.888Z,56.46
2022-10-29T10:35:02.832Z,56.00
2022-10-29T10:37:33.659Z,56.74
2022-10-29T10:40:05.622Z,57.68
2022-10-29T10:42:42.823Z,56.23
2022-10-29T10:45:17.271Z,56.43
2022-10-29T10:47:52.070Z,57.08
2022-10-29T10:50:31.523Z,58.89
2022-10-29T10:53:03.484Z,58.77
2022-10-29T10:55:37.976Z,60.58
2022-10-29T10:58:22.754Z,61.24
2022-10-29T11:00:57.727Z,59.60
2022-10-29T11:03:41.746Z,57.80
2022-10-29T11:06:12.770Z,58.04
2022-10-29T11:08:58.447Z,57.36
2022-10-29T11:11:45.588Z,57.93
2022-10-29T11:14:36.686Z,56.67
2022-10-29T11:17:26.881Z,55.32
2022-10-29T11:20:04.435Z,52.06
2022-10-29T11:22:53.474Z,44.96
2022-10-29T11:25:31.352Z,40.27
2022-10-29T11:28:15.553Z,41.99
2022-10-29T11:31:03.956Z,43.94
2022-10-29T11:33:53.180Z,44.79
2022-10-29T11:36:24.597Z,44.30
2022-10-29T11:38:57.627Z,44.29
2022-10-29T11:41:57.064Z,46.88
2022-10-29T11:44:24.292Z,47.87
2022-10-29T11:47:03.903Z,49.42
2022-10-29T11:49:53.370Z,49.35
2022-10-29T11:52:41.137Z,50.62
2022-10-29T11:55:56.614Z,51.70
2022-10-29T11:58:39.636Z,52.12
2022-10-29T12:01:36.596Z,52.14
2022-10-29T12:04:47.923Z,53.39
2022-10-29T12:07:57.137Z,53.25
2022-10-29T12:10:59.487Z,55.14
2022-10-29T12:13:47.927Z,54.33
2022-10-29T12:16:41.655Z,55.13
2022-10-29T12:19:32.715Z,53.51
2022-10-29T12:22:22.922Z,52.43
2022-10-29T12:25:16.310Z,49.92
2022-10-29T12:28:38.970Z,50.26
2022-10-29T12:31:30.635Z,51.01
2022-10-29T12:33:57.389Z,51.87
2022-10-29T12:36:34.310Z,53.03
2022-10-29T12:39:02.624Z,52.57
2022-10-29T12:41:44.436Z,52.27
2022-10-29T12:44:45.268Z,51.25
2022-10-29T12:47:30.848Z,50.63
2022-10-29T12:49:57.897Z,49.55
2022-10-29T12:53:03.295Z,49.01
2022-10-29T12:55:34.879Z,48.72
2022-10-29T12:58:45.938Z,47.65
2022-10-29T13:01:57.533Z,47.57
2022-10-29T13:04:32.598Z,49.19
2022-10-29T13:07:05.602Z,49.15
2022-10-29T13:09:37.074Z,49.74
2022-10-29T13:12:12.824Z,49.47
2022-10-29T13:14:48.887Z,49.67
2022-10-29T13:17:23.171Z,51.10
2022-10-29T13:19:59.561Z,49.02
2022-10-29T13:22:52.149Z,49.29
2022-10-29T13:25:41.549Z,51.03
2022-10-29T13:28:08.376Z,53.15
2022-10-29T13:30:38.177Z,54.34
2022-10-29T13:33:23.754Z,55.60
2022-10-29T13:36:04.510Z,56.81
2022-10-29T13:39:04.382Z,57.14
2022-10-29T13:41:42.560Z,56.66
2022-10-29T13:44:14.127Z,56.43
2022-10-29T13:47:01.136Z,57.95
2022-10-29T13:49:48.747Z,59.26
2022-10-29T13:52:21.394Z,57.34
2022-10-29T13:55:06.271Z,55.88
2022-10-29T13:58:22.736Z,52.68
2022-10-29T14:00:57.153Z,53.65
2022-10-29T14:03:54.814Z,50.87
2022-10-29T14:06:29.752Z,49.07
2022-10-29T14:09:15.543Z,49.71
2022-10-29T14:11:56.059Z,51.32
2022-10-29T14:15:02.206Z,53.13
2022-10-29T14:17:29.059Z,54.36
2022-10-29T14:19:55.883Z,53.56
2022-10-29T14:22:40.984Z,51.97
2022-10-29T14:25:36.386Z,52.89
2022-10-29T14:28:27.780Z,54.30
2022-10-29T14:31:07.221Z,55.30
2022-10-29T14:33:38.788Z,56.63
2022-10-29T14:36:09.499Z,56.51
2022-10-29T14:38:45.886Z,57.18
2022-10-29T14:41:16.597Z,57.88
2022-10-29T14:43:58.427Z,57.94
2022-10-29T14:46:30.229Z,55.17
2022-10-29T14:49:02.773Z,52.51
2022-10-29T14:51:50.545Z,51.27
2022-10-29T14:54:26.955Z,50.75
2022-10-29T14:57:04.443Z,50.85
2022-10-29T14:59:33.662Z,50.60
2022-10-29T15:02:36.472Z,51.60
2022-10-29T15:05:06.288Z,53.81
2022-10-29T15:07:38.150Z,55.87
2022-10-29T15:10:26.552Z,56.73
2022-10-29T15:12:53.800Z,59.55
2022-10-29T15:15:25.776Z,62.06
2022-10-29T15:18:05.918Z,62.25
2022-10-29T15:20:40.975Z,63.10
2022-10-29T15:23:34.170Z,63.48
2022-10-29T15:26:21.999Z,63.91
2022-10-29T15:28:52.698Z,64.27
2022-10-29T15:31:30.816Z,64.92
2022-10-29T15:34:10.296Z,65.25
2022-10-29T15:36:52.881Z,65.63
2022-10-29T15:39:22.925Z,65.71
2022-10-29T15:41:55.773Z,66.08
2022-10-29T15:44:40.666Z,67.08
2022-10-29T15:47:28.611Z,68.01
2022-10-29T15:49:59.091Z,68.47
2022-10-29T15:52:33.711Z,69.23
2022-10-29T15:55:02.919Z,70.18
2022-10-29T15:57:31.515Z,70.27
2022-10-29T16:02:38.046Z,71.21
2022-10-29T16:05:05.473Z,71.06
2022-10-29T16:07:34.806Z,71.42
2022-10-29T16:10:01.838Z,71.86
2022-10-29T16:12:31.321Z,71.80
2022-10-29T16:14:58.222Z,72.40
2022-10-29T16:17:25.072Z,72.75
2022-10-29T16:19:54.081Z,72.42
2022-10-29T16:22:28.759Z,72.48
2022-10-29T16:24:56.255Z,73.07
2022-10-29T16:27:23.157Z,73.27
2022-10-29T16:29:49.986Z,72.87
2022-10-29T16:32:19.754Z,73.51
2022-10-29T16:34:46.674Z,74.12
2022-10-29T16:37:17.027Z,74.57
2022-10-29T16:39:44.379Z,74.49
2022-10-29T16:42:32.153Z,74.93
2022-10-29T16:44:59.162Z,74.78
2022-10-29T16:47:28.578Z,75.19
2022-10-29T16:49:55.538Z,76.77
2022-10-29T16:52:28.903Z,76.37
2022-10-29T16:54:56.987Z,76.95
2022-10-29T16:57:26.541Z,77.26
2022-10-29T16:59:53.462Z,78.22
2022-10-29T17:02:20.401Z,78.24
2022-10-29T17:04:49.764Z,78.60
2022-10-29T17:07:17.457Z,79.83
2022-10-29T17:09:44.414Z,80.76
2022-10-29T17:12:11.268Z,82.52
2022-10-29T17:14:40.352Z,82.51
2022-10-29T17:17:07.277Z,81.57
2022-10-29T17:19:38.766Z,80.76
2022-10-29T17:22:07.964Z,80.41
2022-10-29T17:24:34.818Z,81.67
2022-10-29T17:27:04.091Z,81.35
2022-10-29T17:29:36.293Z,80.66
2022-10-29T17:32:05.331Z,80.31
2022-10-29T17:34:32.449Z,80.61
2022-10-29T17:37:02.234Z,80.74
2022-10-29T17:39:30.848Z,81.17
2022-10-29T17:42:00.839Z,81.85
2022-10-29T17:44:27.685Z,81.43
2022-10-29T17:46:55.209Z,81.08
2022-10-29T17:49:22.356Z,81.49
2022-10-29T17:51:52.339Z,81.29
2022-10-29T17:54:21.274Z,81.32
2022-10-29T17:56:52.146Z,80.12
2022-10-29T17:59:21.206Z,80.83
2022-10-29T18:01:51.189Z,81.14
2022-10-29T18:04:18.157Z,81.98
2022-10-29T18:06:45.139Z,82.63
2022-10-29T18:09:17.236Z,82.08
2022-10-29T18:11:51.001Z,82.00
2022-10-29T18:14:17.971Z,81.92
2022-10-29T18:16:45.777Z,81.72
2022-10-29T18:19:14.840Z,82.03
2022-10-29T18:21:41.763Z,81.95
2022-10-29T18:24:11.226Z,82.21
2022-10-29T18:26:38.188Z,81.95
2022-10-29T18:29:14.147Z,82.35
2022-10-29T18:31:44.917Z,82.53
2022-10-29T18:34:17.025Z,83.71
2022-10-29T18:36:47.580Z,84.85
2022-10-29T18:39:14.477Z,84.59
2022-10-29T18:41:41.323Z,83.95
2022-10-29T18:44:08.212Z,83.89
2022-10-29T18:46:35.230Z,82.94
2022-10-29T18:49:02.126Z,83.43
2022-10-29T18:51:32.777Z,83.25
2022-10-29T18:54:02.732Z,83.33
2022-10-29T18:56:34.522Z,83.03
2022-10-29T18:59:01.442Z,84.02
2022-10-29T19:01:38.890Z,83.60
2022-10-29T19:04:08.602Z,83.20
2022-10-29T19:06:37.130Z,83.01
2022-10-29T19:09:09.814Z,83.29
2022-10-29T19:11:37.286Z,82.86
2022-10-29T19:14:11.963Z,83.38
2022-10-29T19:16:38.830Z,83.03
2022-10-29T19:19:12.485Z,83.52
2022-10-29T19:21:43.256Z,83.61
2022-10-29T19:24:14.764Z,83.65
2022-10-29T19:26:44.543Z,83.42
2022-10-29T19:29:15.238Z,83.52
2022-10-29T19:31:46.455Z,83.62
2022-10-29T19:34:15.746Z,84.38
2022-10-29T19:36:45.534Z,84.84
2022-10-29T19:39:14.621Z,84.68
2022-10-29T19:41:43.886Z,84.67
2022-10-29T19:44:10.716Z,84.72
2022-10-29T19:46:37.518Z,84.78
2022-10-29T19:49:04.356Z,84.29
2022-10-29T19:51:31.160Z,84.40
2022-10-29T19:53:58.628Z,84.49
2022-10-29T19:56:27.670Z,84.32
2022-10-29T19:58:59.239Z,85.87
2022-10-29T20:01:26.306Z,88.09
2022-10-29T20:03:57.097Z,89.13
2022-10-29T20:06:26.667Z,88.90
2022-10-29T20:08:53.483Z,89.41
2022-10-29T20:11:20.313Z,90.18
2022-10-29T20:13:47.318Z,89.67
2022-10-29T20:16:18.682Z,90.98
2022-10-29T20:18:47.105Z,91.58
2022-10-29T20:21:21.079Z,91.65
2022-10-29T20:23:47.935Z,92.76
2022-10-29T20:26:14.765Z,92.56
2022-10-29T20:28:43.737Z,93.35
2022-10-29T20:31:24.408Z,92.83
2022-10-29T20:33:56.740Z,94.57
2022-10-29T20:36:24.617Z,94.15
2022-10-29T20:38:55.921Z,93.38
2022-10-29T20:41:23.080Z,91.98
2022-10-29T20:43:57.647Z,92.46
2022-10-29T20:46:27.928Z,91.14
2022-10-29T20:48:55.009Z,91.09
2022-10-29T20:51:23.036Z,90.68
2022-10-29T20:53:53.442Z,90.26
2022-10-29T20:56:23.742Z,89.50
2022-10-29T20:58:50.778Z,89.25
2022-10-29T21:01:20.564Z,89.29
2022-10-29T21:03:51.101Z,88.74
2022-10-29T21:06:20.933Z,88.79
2022-10-29T21:08:51.481Z,88.91
2022-10-29T21:11:20.240Z,88.60
2022-10-29T21:13:50.176Z,88.27
2022-10-29T21:16:28.383Z,88.45
2022-10-29T21:19:01.249Z,87.72
2022-10-29T21:21:31.619Z,87.82
2022-10-29T21:24:00.907Z,87.69
2022-10-29T21:26:28.634Z,87.01
2022-10-29T21:28:55.662Z,87.38
2022-10-29T21:31:23.832Z,87.69
2022-10-29T21:33:52.467Z,88.14
2022-10-29T21:36:19.833Z,87.78
2022-10-29T21:38:46.684Z,87.88
2022-10-29T21:41:15.984Z,87.70
2022-10-29T21:43:42.777Z,87.32
2022-10-29T21:46:09.694Z,87.05
2022-10-29T21:48:38.959Z,87.53
2022-10-29T21:51:15.054Z,88.02
2022-10-29T21:53:44.050Z,88.48
2022-10-29T21:56:15.535Z,88.07
2022-10-29T21:58:45.675Z,89.86
2022-10-29T22:01:18.097Z,90.02
2022-10-29T22:03:46.979Z,90.30
2022-10-29T22:06:21.390Z,91.42
2022-10-29T22:08:56.292Z,91.07
2022-10-29T22:11:26.887Z,90.67
2022-10-29T22:13:54.530Z,91.33
2022-10-29T22:16:22.607Z,91.27
2022-10-29T22:18:49.913Z,91.16
2022-10-29T22:21:20.732Z,91.11
2022-10-29T22:23:59.851Z,91.52
2022-10-29T22:26:30.546Z,92.81
2022-10-29T22:29:01.913Z,92.86
2022-10-29T22:31:28.784Z,93.56
2022-10-29T22:33:55.638Z,94.52
2022-10-29T22:36:26.926Z,93.32
2022-10-29T22:38:58.552Z,94.20
2022-10-29T22:41:26.505Z,95.03
2022-10-29T22:43:53.421Z,95.56
2022-10-29T22:46:22.103Z,95.41
2022-10-29T22:48:51.905Z,94.99
2022-10-29T22:51:27.795Z,95.61
2022-10-29T22:53:54.824Z,95.67
2022-10-29T22:56:31.730Z,94.83
2022-10-29T22:58:59.095Z,95.51
2022-10-29T23:01:32.542Z,95.60
2022-10-29T23:04:00.183Z,94.96
2022-10-29T23:06:28.224Z,95.48
2022-10-29T23:09:01.739Z,96.17
2022-10-29T23:11:32.153Z,97.36
2022-10-29T23:14:00.857Z,97.59
2022-10-29T23:16:31.242Z,98.00
2022-10-29T23:19:05.051Z,98.72
2022-10-29T23:21:33.099Z,99.69
2022-10-29T23:23:59.906Z,99.27
2022-10-29T23:26:27.343Z,98.20
2022-10-29T23:28:56.733Z,97.26
2022-10-29T23:31:29.723Z,97.67
2022-10-29T23:33:58.350Z,98.17
2022-10-29T23:36:27.533Z,97.85
2022-10-29T23:39:02.014Z,96.96
2022-10-29T23:41:30.827Z,97.73
2022-10-29T23:43:58.271Z,98.30
2022-10-29T23:46:27.505Z,97.63
2022-10-29T23:48:54.748Z,96.97
2022-10-29T23:51:21.694Z,97.22
2022-10-29T23:53:51.614Z,97.95
2022-10-29T23:56:21.662Z,97.60
2022-10-29T23:58:48.607Z,97.90
